Terminal Aerodrome Forecast
Issued by NWS

Home | Current Version | Previous Version | Text Only | Print | Product List | Glossary On
Versions: 1 2 3 4 5 6 7 8 9 10 11 12 13 14 15 16 17 18 19 20 21 22 23
249
FTUS43 KILX 270523
TAFDEC
TAF
KDEC 270523Z 2706/2806 12006KT P6SM VCSH SCT035 BKN120
     FM270800 14005KT 4SM -SHRA BR VCTS SCT015 BKN035CB
     FM271300 16007KT 4SM -SHRA BR VCTS SCT007 OVC015CB
     FM271600 18009KT P6SM BKN030
     FM272100 17008KT P6SM SCT040 BKN250=

USA.gov is the U.S. government's official web portal to all federal, state and local government web resources and services.